Time;durP1;ratioP1;P1;durP2;ratioP2;P2;SDS_P1;SDS_P2;PMS_P1;PMS_P2;Temp;Humidity;BMP_temperature;BMP_pressure;BME280_temperature;BME280_humidity;BME280_pressure;Samples;Min_cycle;Max_cycle;Signal;HPM_P1;HPM_P2
2023/07/09 00:02:19;;;;;;;7.32;5.63;;;;;;;;;;5072189;28;20159;-64
2023/07/09 00:04:44;;;;;;;14.35;6.15;;;;;;;;;;5073256;28;20115;-64
2023/07/09 00:07:22;;;;;;;15.27;7.80;;;;;;;;;;5070895;28;20029;-64
2023/07/09 00:09:47;;;;;;;;;;;;;;;;;;5074041;28;20096;-64
2023/07/09 00:12:14;;;;;;;10.38;6.07;;;;;;;;;;5071588;28;20002;-64
2023/07/09 00:14:39;;;;;;;11.70;6.97;;;;;;;;;;5072811;28;20027;-64
2023/07/09 00:17:08;;;;;;;8.23;7.15;;;;;;;;;;5071353;28;20036;-64
2023/07/09 00:19:33;;;;;;;8.68;5.78;;;;;;;;;;5073000;28;20476;-64
2023/07/09 00:21:58;;;;;;;8.55;7.22;;;;;;;;;;5071220;28;20039;-66
2023/07/09 00:24:23;;;;;;;12.90;7.13;;;;;;;;;;5073060;28;20425;-66
2023/07/09 00:26:49;;;;;;;14.97;6.23;;;;;;;;;;5071582;28;20474;-66
2023/07/09 00:29:15;;;;;;;9.98;6.35;;;;;;;;;;5072136;28;20489;-66
2023/07/09 00:31:43;;;;;;;9.65;7.03;;;;;;;;;;5071447;28;20119;-65
2023/07/09 00:34:11;;;;;;;9.68;7.65;;;;;;;;;;5072640;28;20021;-61
2023/07/09 00:36:37;;;;;;;8.70;6.45;;;;;;;;;;5071135;28;20566;-64
2023/07/09 00:39:04;;;;;;;9.38;6.85;;;;;;;;;;5072464;28;20035;-64
2023/07/09 00:41:31;;;;;;;7.03;6.30;;;;;;;;;;5071342;28;20033;-63
2023/07/09 00:43:57;;;;;;;9.43;6.95;;;;;;;;;;5071999;28;20024;-63
2023/07/09 00:46:23;;;;;;;8.07;6.30;;;;;;;;;;5071298;28;20023;-63
2023/07/09 00:48:57;;;;;;;11.20;7.00;;;;;;;;;;5072707;28;20451;-64
2023/07/09 00:51:22;;;;;;;10.05;6.13;;;;;;;;;;5070964;28;20380;-63
2023/07/09 00:53:49;;;;;;;15.47;8.33;;;;;;;;;;5072376;28;20013;-64
2023/07/09 00:56:16;;;;;;;12.15;6.63;;;;;;;;;;5070834;28;20022;-63
2023/07/09 00:58:43;;;;;;;7.63;6.18;;;;;;;;;;5072006;28;20013;-64
2023/07/09 01:01:11;;;;;;;10.57;7.20;;;;;;;;;;5070674;28;20012;-63
2023/07/09 01:03:36;;;;;;;;;;;;;;;;;;5073080;28;20388;-64
2023/07/09 01:06:03;;;;;;;8.40;7.50;;;;;;;;;;5071692;28;20283;-64
2023/07/09 01:08:30;;;;;;;8.82;6.10;;;;;;;;;;5070754;28;20127;-63
2023/07/09 01:10:55;;;;;;;8.00;5.83;;;;;;;;;;5071900;28;20017;-64
2023/07/09 01:13:21;;;;;;;10.88;7.95;;;;;;;;;;5069961;28;20563;-64
2023/07/09 01:15:46;;;;;;;11.50;6.40;;;;;;;;;;5072168;28;20032;-64
2023/07/09 01:18:12;;;;;;;6.95;6.25;;;;;;;;;;5069710;28;20486;-64
2023/07/09 01:20:38;;;;;;;9.30;7.35;;;;;;;;;;5071610;28;20055;-64
2023/07/09 01:23:05;;;;;;;7.05;6.25;;;;;;;;;;5069854;28;20028;-64
2023/07/09 01:25:31;;;;;;;14.60;7.75;;;;;;;;;;5071982;28;20375;-64
2023/07/09 01:27:56;;;;;;;9.13;7.90;;;;;;;;;;5069396;28;20075;-64
2023/07/09 01:30:24;;;;;;;7.77;6.87;;;;;;;;;;5071870;28;20017;-64
2023/07/09 01:32:50;;;;;;;8.32;6.55;;;;;;;;;;5070239;28;20572;-64
2023/07/09 01:35:17;;;;;;;12.23;7.28;;;;;;;;;;5071154;28;20055;-64
2023/07/09 01:37:43;;;;;;;10.68;6.15;;;;;;;;;;5070125;28;20043;-64
2023/07/09 01:40:10;;;;;;;13.68;7.20;;;;;;;;;;5070545;28;20031;-64
2023/07/09 01:42:37;;;;;;;11.13;8.32;;;;;;;;;;5069813;28;20060;-64
2023/07/09 01:45:04;;;;;;;11.02;7.53;;;;;;;;;;5070012;28;20027;-64
2023/07/09 01:47:29;;;;;;;11.85;7.88;;;;;;;;;;5069755;28;20033;-64
2023/07/09 01:49:57;;;;;;;20.15;7.93;;;;;;;;;;5070736;28;20016;-64
2023/07/09 01:52:23;;;;;;;10.10;8.20;;;;;;;;;;5070132;28;20031;-64
2023/07/09 01:54:49;;;;;;;11.15;6.82;;;;;;;;;;5071521;28;20079;-64
2023/07/09 01:57:25;;;;;;;9.30;6.57;;;;;;;;;;5069201;28;20040;-63
2023/07/09 01:59:52;;;;;;;8.57;7.68;;;;;;;;;;5071057;28;20032;-63
2023/07/09 02:02:20;;;;;;;9.05;8.07;;;;;;;;;;5069980;28;20043;-65
2023/07/09 02:04:46;;;;;;;13.07;7.72;;;;;;;;;;5070795;28;20021;-65
2023/07/09 02:07:11;;;;;;;10.52;7.72;;;;;;;;;;5069458;28;20111;-65
2023/07/09 02:09:37;;;;;;;8.53;7.63;;;;;;;;;;5071357;28;20104;-64
2023/07/09 02:12:02;;;;;;;9.23;8.00;;;;;;;;;;5069190;28;20028;-63
2023/07/09 02:14:27;;;;;;;13.30;8.07;;;;;;;;;;5071158;28;20476;-64
2023/07/09 02:16:52;;;;;;;9.10;7.20;;;;;;;;;;5069342;28;20149;-63
2023/07/09 02:19:18;;;;;;;10.18;7.25;;;;;;;;;;5070554;28;20419;-64
2023/07/09 02:21:43;;;;;;;11.20;7.40;;;;;;;;;;5069619;28;20120;-63
2023/07/09 02:24:08;;;;;;;9.45;6.80;;;;;;;;;;5070782;28;20028;-63
2023/07/09 02:26:33;;;;;;;10.50;7.83;;;;;;;;;;5069306;28;20033;-63
2023/07/09 02:28:58;;;;;;;15.20;8.53;;;;;;;;;;5070369;28;20024;-63
2023/07/09 02:31:23;;;;;;;8.37;7.53;;;;;;;;;;5069655;28;20016;-63
2023/07/09 02:33:50;;;;;;;9.38;8.13;;;;;;;;;;5070829;28;20052;-63
2023/07/09 02:36:15;;;;;;;10.25;8.10;;;;;;;;;;5068171;28;20149;-63
2023/07/09 02:38:41;;;;;;;8.40;6.82;;;;;;;;;;5070940;28;20475;-64
2023/07/09 02:41:06;;;;;;;28.33;8.93;;;;;;;;;;5070477;28;20031;-63
2023/07/09 02:43:31;;;;;;;9.95;7.63;;;;;;;;;;5068608;28;20436;-64
2023/07/09 02:45:56;;;;;;;9.05;6.82;;;;;;;;;;5070185;28;20033;-64
2023/07/09 02:48:21;;;;;;;12.60;8.02;;;;;;;;;;5069284;28;20036;-64
2023/07/09 02:50:46;;;;;;;9.40;8.25;;;;;;;;;;5070334;28;20055;-64
2023/07/09 02:53:11;;;;;;;9.27;8.20;;;;;;;;;;5072636;28;20098;-64
2023/07/09 02:55:37;;;;;;;8.33;7.43;;;;;;;;;;5074695;28;20025;-64
2023/07/09 02:58:02;;;;;;;10.87;8.23;;;;;;;;;;5072561;28;20029;-65
2023/07/09 03:00:28;;;;;;;15.00;7.38;;;;;;;;;;5074762;28;20375;-64
2023/07/09 03:02:53;;;;;;;10.80;7.38;;;;;;;;;;5072899;28;20029;-64
2023/07/09 03:05:18;;;;;;;11.50;9.90;;;;;;;;;;5074347;28;20020;-64
2023/07/09 03:07:43;;;;;;;12.25;8.65;;;;;;;;;;5073132;28;20044;-64
2023/07/09 03:10:09;;;;;;;9.57;8.27;;;;;;;;;;5074136;28;20024;-64
2023/07/09 03:12:34;;;;;;;11.40;8.20;;;;;;;;;;5072610;28;20055;-64
2023/07/09 03:14:59;;;;;;;11.67;9.20;;;;;;;;;;5073771;28;20024;-64
2023/07/09 03:17:24;;;;;;;11.10;9.13;;;;;;;;;;5072890;28;20033;-64
2023/07/09 03:19:49;;;;;;;9.82;7.28;;;;;;;;;;5074060;28;20023;-64
2023/07/09 03:22:14;;;;;;;10.70;8.33;;;;;;;;;;5072906;28;20039;-64
2023/07/09 03:24:40;;;;;;;9.73;8.73;;;;;;;;;;5074082;28;20415;-65
2023/07/09 03:27:05;;;;;;;10.03;7.27;;;;;;;;;;5072246;28;20024;-65
2023/07/09 03:29:30;;;;;;;10.40;8.00;;;;;;;;;;5074024;28;20024;-65
2023/07/09 03:31:55;;;;;;;10.48;8.30;;;;;;;;;;5072214;28;20039;-65
2023/07/09 03:34:20;;;;;;;11.68;9.65;;;;;;;;;;5073507;28;20016;-64
2023/07/09 03:36:46;;;;;;;15.85;9.73;;;;;;;;;;5072531;28;20527;-66
2023/07/09 03:39:12;;;;;;;11.35;8.52;;;;;;;;;;5073662;28;20024;-66
2023/07/09 03:41:37;;;;;;;10.35;8.02;;;;;;;;;;5072094;28;20218;-64
2023/07/09 03:44:02;;;;;;;11.07;8.93;;;;;;;;;;5073408;28;20029;-65
2023/07/09 03:46:28;;;;;;;10.60;8.35;;;;;;;;;;5072300;28;20051;-65
2023/07/09 03:48:53;;;;;;;8.32;7.15;;;;;;;;;;5073049;28;20055;-65
2023/07/09 03:51:18;;;;;;;13.55;7.75;;;;;;;;;;5072265;28;20020;-65
2023/07/09 03:53:43;;;;;;;14.97;9.23;;;;;;;;;;5073836;28;20025;-65
2023/07/09 03:56:08;;;;;;;9.63;8.63;;;;;;;;;;5071655;28;20020;-64
2023/07/09 03:58:35;;;;;;;10.00;8.13;;;;;;;;;;5073448;28;20027;-65
2023/07/09 04:01:00;;;;;;;10.82;7.43;;;;;;;;;;5073258;28;20568;-65
2023/07/09 04:03:25;;;;;;;11.48;8.85;;;;;;;;;;5071041;28;20562;-65
2023/07/09 04:05:51;;;;;;;9.70;8.80;;;;;;;;;;5073276;28;20020;-65
2023/07/09 04:08:16;;;;;;;10.30;9.20;;;;;;;;;;5071799;28;20036;-65
2023/07/09 04:10:41;;;;;;;12.50;8.63;;;;;;;;;;5073248;28;20040;-68
2023/07/09 04:13:06;;;;;;;10.57;8.88;;;;;;;;;;5066533;28;20433;-66
2023/07/09 04:15:32;;;;;;;10.80;9.53;;;;;;;;;;5056516;28;20108;-66
2023/07/09 04:17:57;;;;;;;12.63;8.88;;;;;;;;;;5055191;28;20036;-66
2023/07/09 04:20:22;;;;;;;11.37;9.20;;;;;;;;;;5064203;28;20025;-66
2023/07/09 04:22:47;;;;;;;12.93;7.97;;;;;;;;;;5056100;28;20436;-67
2023/07/09 04:25:13;;;;;;;11.27;8.30;;;;;;;;;;5052611;28;21075;-67
2023/07/09 04:27:38;;;;;;;21.27;9.07;;;;;;;;;;5050074;28;20033;-67
2023/07/09 04:30:05;;;;;;;12.18;7.65;;;;;;;;;;5051402;28;20384;-67
2023/07/09 04:32:30;;;;;;;9.80;8.15;;;;;;;;;;5050000;28;20061;-67
2023/07/09 04:34:55;;;;;;;13.10;9.52;;;;;;;;;;5051590;28;20469;-67
2023/07/09 04:37:21;;;;;;;11.55;8.52;;;;;;;;;;5036778;28;20044;-67
2023/07/09 04:39:47;;;;;;;9.65;8.05;;;;;;;;;;5043780;28;20229;-67
2023/07/09 04:42:13;;;;;;;9.63;7.65;;;;;;;;;;5050269;28;20575;-67
2023/07/09 04:44:39;;;;;;;10.10;8.57;;;;;;;;;;5053803;28;20025;-67
2023/07/09 04:47:04;;;;;;;11.18;7.82;;;;;;;;;;5060168;28;20036;-67
2023/07/09 04:49:29;;;;;;;8.38;7.47;;;;;;;;;;5069600;28;20107;-67
2023/07/09 04:51:56;;;;;;;8.88;7.93;;;;;;;;;;5061455;28;20041;-63
2023/07/09 04:54:22;;;;;;;11.20;8.98;;;;;;;;;;5043010;28;20409;-64
2023/07/09 04:56:48;;;;;;;18.85;8.90;;;;;;;;;;5050106;28;20043;-63
2023/07/09 04:59:13;;;;;;;9.30;7.70;;;;;;;;;;5050411;28;20033;-64
2023/07/09 05:01:38;;;;;;;10.77;6.80;;;;;;;;;;5050542;28;20059;-63
2023/07/09 05:04:04;;;;;;;13.07;8.23;;;;;;;;;;5053330;28;20546;-64
2023/07/09 05:06:29;;;;;;;12.77;8.93;;;;;;;;;;5069635;28;20458;-66
2023/07/09 05:08:54;;;;;;;11.38;8.07;;;;;;;;;;5049451;28;20033;-67
2023/07/09 05:11:19;;;;;;;14.13;8.20;;;;;;;;;;5049032;28;20078;-64
2023/07/09 05:13:44;;;;;;;14.05;7.70;;;;;;;;;;5062129;28;20027;-65
2023/07/09 05:16:09;;;;;;;9.20;6.63;;;;;;;;;;5060123;28;20029;-65
2023/07/09 05:18:34;;;;;;;11.30;7.93;;;;;;;;;;5063891;28;20067;-64
2023/07/09 05:21:00;;;;;;;12.85;8.30;;;;;;;;;;5070948;28;20004;-66
2023/07/09 05:23:25;;;;;;;13.73;8.05;;;;;;;;;;5067760;28;20521;-66
2023/07/09 05:26:00;;;;;;;13.27;7.97;;;;;;;;;;5070721;28;20040;-66
2023/07/09 05:28:25;;;;;;;12.88;8.35;;;;;;;;;;5069613;28;20043;-63
2023/07/09 05:30:51;;;;;;;13.32;7.65;;;;;;;;;;5069829;28;20028;-62
2023/07/09 05:33:17;;;;;;;14.57;8.20;;;;;;;;;;5068906;28;20048;-63
2023/07/09 05:35:42;;;;;;;9.75;8.20;;;;;;;;;;5070870;28;20040;-65
2023/07/09 05:38:07;;;;;;;14.82;8.73;;;;;;;;;;5066279;28;20579;-65
2023/07/09 05:40:32;;;;;;;14.53;8.17;;;;;;;;;;5053995;28;20532;-65
2023/07/09 05:42:58;;;;;;;12.02;7.68;;;;;;;;;;5064564;28;20033;-65
2023/07/09 05:45:23;;;;;;;10.80;7.32;;;;;;;;;;5053786;28;20029;-63
2023/07/09 05:47:48;;;;;;;9.90;6.93;;;;;;;;;;5063874;28;20529;-62
2023/07/09 05:50:13;;;;;;;18.00;8.43;;;;;;;;;;5068631;28;20040;-62
2023/07/09 05:52:38;;;;;;;12.23;7.53;;;;;;;;;;5062034;28;20041;-62
2023/07/09 05:55:04;;;;;;;19.43;11.07;;;;;;;;;;5068025;28;20222;-62
2023/07/09 05:57:29;;;;;;;12.18;8.23;;;;;;;;;;5052427;28;20037;-62
2023/07/09 05:59:54;;;;;;;11.48;8.57;;;;;;;;;;5053588;28;20045;-62
2023/07/09 06:02:20;;;;;;;13.03;9.23;;;;;;;;;;5059354;28;20521;-62
2023/07/09 06:04:45;;;;;;;10.27;8.68;;;;;;;;;;5064655;28;20021;-62
2023/07/09 06:07:12;;;;;;;18.65;9.82;;;;;;;;;;5067717;28;20544;-62
2023/07/09 06:09:37;;;;;;;16.08;8.93;;;;;;;;;;5068974;28;20025;-62
2023/07/09 06:12:03;;;;;;;12.77;7.75;;;;;;;;;;5068795;28;20035;-62
2023/07/09 06:14:28;;;;;;;11.25;9.15;;;;;;;;;;5069191;28;20024;-62
2023/07/09 06:16:53;;;;;;;16.08;7.47;;;;;;;;;;5067959;28;20123;-62
2023/07/09 06:19:18;;;;;;;15.40;7.33;;;;;;;;;;5051943;28;20100;-62
2023/07/09 06:21:43;;;;;;;14.48;8.63;;;;;;;;;;5056508;28;20537;-62
2023/07/09 06:24:09;;;;;;;10.82;7.60;;;;;;;;;;5061992;28;20052;-62
2023/07/09 06:26:34;;;;;;;14.65;8.77;;;;;;;;;;5058159;28;20040;-62
2023/07/09 06:28:59;;;;;;;12.80;7.97;;;;;;;;;;5052787;28;20016;-62
2023/07/09 06:31:24;;;;;;;17.00;8.80;;;;;;;;;;5048031;28;20021;-62
2023/07/09 06:33:50;;;;;;;18.27;9.63;;;;;;;;;;5050311;28;20099;-62
2023/07/09 06:36:16;;;;;;;13.75;9.15;;;;;;;;;;5047391;28;20126;-61
2023/07/09 06:38:42;;;;;;;15.38;9.75;;;;;;;;;;5050109;28;20047;-62
2023/07/09 06:41:08;;;;;;;12.27;7.72;;;;;;;;;;5049219;28;20013;-60
2023/07/09 06:43:34;;;;;;;14.93;10.70;;;;;;;;;;5069237;28;20623;-62
2023/07/09 06:45:59;;;;;;;13.30;8.27;;;;;;;;;;5036951;28;20033;-62
2023/07/09 06:48:25;;;;;;;14.25;8.55;;;;;;;;;;5058657;28;20036;-62
2023/07/09 06:50:52;;;;;;;15.30;9.23;;;;;;;;;;5069134;28;20092;-62
2023/07/09 06:53:17;;;;;;;22.85;10.25;;;;;;;;;;5068184;28;20037;-62
2023/07/09 06:55:42;;;;;;;17.50;9.37;;;;;;;;;;5069797;28;20025;-62
2023/07/09 06:58:08;;;;;;;13.87;9.37;;;;;;;;;;5057254;28;20551;-62
2023/07/09 07:00:34;;;;;;;27.40;9.48;;;;;;;;;;5056226;28;20017;-62
2023/07/09 07:02:59;;;;;;;14.55;8.60;;;;;;;;;;5062746;28;20063;-62
2023/07/09 07:05:24;;;;;;;14.35;8.60;;;;;;;;;;5069187;28;20044;-62
2023/07/09 07:07:49;;;;;;;18.95;9.07;;;;;;;;;;5068260;28;20037;-63
2023/07/09 07:10:14;;;;;;;15.38;7.90;;;;;;;;;;5044394;28;20083;-62
2023/07/09 07:12:44;;;;;;;9.55;7.80;;;;;;;;;;5039173;28;20044;-62
2023/07/09 07:15:11;;;;;;;13.18;9.02;;;;;;;;;;5049200;28;20662;-62
2023/07/09 07:17:36;;;;;;;23.38;10.40;;;;;;;;;;5048296;28;20048;-62
2023/07/09 07:20:01;;;;;;;15.38;8.80;;;;;;;;;;5049096;28;20021;-62
2023/07/09 07:22:27;;;;;;;15.13;9.00;;;;;;;;;;5048278;28;20032;-62
2023/07/09 07:24:52;;;;;;;23.65;10.27;;;;;;;;;;5049668;28;20028;-62
2023/07/09 07:27:17;;;;;;;10.63;7.80;;;;;;;;;;5048340;28;20635;-62
2023/07/09 07:29:42;;;;;;;12.73;9.20;;;;;;;;;;5049527;28;20028;-62
2023/07/09 07:32:08;;;;;;;12.67;8.27;;;;;;;;;;5047683;28;20053;-61
2023/07/09 07:34:33;;;;;;;15.02;9.70;;;;;;;;;;5049891;28;20052;-62
2023/07/09 07:36:58;;;;;;;16.67;8.87;;;;;;;;;;5048261;28;20115;-62
2023/07/09 07:39:24;;;;;;;19.00;9.20;;;;;;;;;;5051586;28;20116;-62
2023/07/09 07:41:50;;;;;;;15.07;9.93;;;;;;;;;;5051994;28;20368;-62
2023/07/09 07:44:15;;;;;;;11.35;7.63;;;;;;;;;;5053432;28;20070;-62
2023/07/09 07:46:41;;;;;;;15.90;8.40;;;;;;;;;;5051624;28;20040;-62
2023/07/09 07:49:06;;;;;;;12.95;8.63;;;;;;;;;;5053394;28;20043;-62
2023/07/09 07:51:31;;;;;;;16.73;8.55;;;;;;;;;;5051838;28;20037;-62
2023/07/09 07:53:56;;;;;;;15.27;8.70;;;;;;;;;;5052644;28;20047;-62
2023/07/09 07:56:22;;;;;;;14.43;9.77;;;;;;;;;;5051786;28;20068;-61
2023/07/09 07:58:47;;;;;;;18.00;9.73;;;;;;;;;;5053347;28;20380;-62
2023/07/09 08:01:12;;;;;;;16.70;8.83;;;;;;;;;;5051272;28;20075;-62
2023/07/09 08:03:37;;;;;;;15.80;8.45;;;;;;;;;;5053190;28;20020;-62
2023/07/09 08:06:02;;;;;;;11.90;8.38;;;;;;;;;;5059372;28;20012;-62
2023/07/09 08:08:27;;;;;;;11.60;7.82;;;;;;;;;;5071341;28;20064;-62
2023/07/09 08:10:59;;;;;;;11.27;8.10;;;;;;;;;;5072661;28;20020;-62
2023/07/09 08:13:24;;;;;;;13.60;8.65;;;;;;;;;;5070280;28;20499;-62
2023/07/09 08:15:50;;;;;;;12.18;7.30;;;;;;;;;;5072574;28;20048;-62
2023/07/09 08:18:15;;;;;;;15.07;7.97;;;;;;;;;;5071219;28;20214;-62
2023/07/09 08:20:42;;;;;;;14.00;9.98;;;;;;;;;;5072855;28;20016;-62
2023/07/09 08:23:07;;;;;;;18.90;8.57;;;;;;;;;;5070801;28;20054;-62
2023/07/09 08:25:32;;;;;;;13.82;8.27;;;;;;;;;;5072764;28;20028;-62
2023/07/09 08:27:58;;;;;;;18.33;11.07;;;;;;;;;;5045556;28;20052;-62
2023/07/09 08:30:23;;;;;;;16.67;8.70;;;;;;;;;;5043987;28;20021;-62
2023/07/09 08:32:48;;;;;;;11.73;9.30;;;;;;;;;;5051259;28;20044;-62
2023/07/09 08:35:15;;;;;;;17.93;10.07;;;;;;;;;;5039895;28;20104;-62
2023/07/09 08:37:40;;;;;;;29.73;9.15;;;;;;;;;;5043723;28;20033;-62
2023/07/09 08:40:09;;;;;;;13.30;7.47;;;;;;;;;;5066062;28;20082;-62
2023/07/09 08:42:41;;;;;;;13.80;8.50;;;;;;;;;;5069931;28;20033;-62
2023/07/09 08:45:24;;;;;;;13.10;7.82;;;;;;;;;;5064805;28;20016;-62
2023/07/09 08:48:05;;;;;;;19.50;7.10;;;;;;;;;;5050991;28;20032;-62
2023/07/09 08:50:38;;;;;;;16.33;9.30;;;;;;;;;;5052167;28;20495;-62
2023/07/09 08:53:04;;;;;;;13.43;7.90;;;;;;;;;;5049759;28;20075;-62
2023/07/09 08:55:38;;;;;;;12.88;7.95;;;;;;;;;;5052130;28;20538;-62
2023/07/09 08:58:05;;;;;;;23.60;8.75;;;;;;;;;;5063744;28;20033;-63
2023/07/09 09:00:33;;;;;;;17.75;8.63;;;;;;;;;;5072013;28;20021;-62
2023/07/09 09:02:58;;;;;;;;;;;;;;;;;;5070985;28;20056;-62
2023/07/09 09:05:24;;;;;;;15.02;7.80;;;;;;;;;;5071910;28;19997;-62
2023/07/09 09:08:04;;;;;;;15.75;8.20;;;;;;;;;;5070019;28;20051;-62
2023/07/09 09:10:32;;;;;;;16.20;8.30;;;;;;;;;;5071785;28;20063;-62
2023/07/09 09:13:10;;;;;;;16.00;8.35;;;;;;;;;;5069856;28;20098;-62
2023/07/09 09:15:37;;;;;;;10.85;7.30;;;;;;;;;;5071429;28;20020;-62
2023/07/09 09:18:15;;;;;;;11.48;7.13;;;;;;;;;;5070018;28;20024;-62
2023/07/09 09:20:40;;;;;;;10.43;7.75;;;;;;;;;;5071634;28;20058;-62
2023/07/09 09:23:05;;;;;;;9.98;7.13;;;;;;;;;;5069618;28;20032;-62
2023/07/09 09:25:31;;;;;;;10.90;6.68;;;;;;;;;;5071735;28;20024;-62
2023/07/09 09:28:00;;;;;;;9.95;7.78;;;;;;;;;;5069669;28;20115;-62
2023/07/09 09:30:28;;;;;;;22.65;8.15;;;;;;;;;;5070959;28;20035;-62
2023/07/09 09:32:55;;;;;;;11.27;7.50;;;;;;;;;;5069859;28;20032;-62
2023/07/09 09:35:26;;;;;;;11.23;7.13;;;;;;;;;;5071004;28;20778;-62
2023/07/09 09:37:52;;;;;;;17.45;8.25;;;;;;;;;;5069478;28;20032;-62
2023/07/09 09:40:20;;;;;;;11.13;6.88;;;;;;;;;;5071103;28;20545;-62
2023/07/09 09:42:46;;;;;;;26.27;6.97;;;;;;;;;;5069882;28;20028;-62
2023/07/09 09:45:13;;;;;;;6.95;5.60;;;;;;;;;;5068542;28;20104;-62
2023/07/09 09:47:38;;;;;;;9.13;6.20;;;;;;;;;;5049778;28;20032;-62
2023/07/09 09:50:04;;;;;;;9.32;5.88;;;;;;;;;;5051008;28;20020;-62
2023/07/09 09:52:32;;;;;;;7.40;6.15;;;;;;;;;;5048619;28;20057;-62
2023/07/09 09:55:02;;;;;;;12.35;7.28;;;;;;;;;;5051050;28;20272;-62
2023/07/09 09:57:27;;;;;;;12.25;6.88;;;;;;;;;;5051922;28;20571;-62
2023/07/09 09:59:54;;;;;;;16.10;6.43;;;;;;;;;;5064685;28;20104;-62
2023/07/09 10:02:21;;;;;;;8.57;6.07;;;;;;;;;;5068627;28;20032;-62
2023/07/09 10:04:46;;;;;;;8.77;5.88;;;;;;;;;;5070861;28;20023;-62
2023/07/09 10:07:16;;;;;;;10.10;5.47;;;;;;;;;;5068642;28;20116;-61
2023/07/09 10:09:51;;;;;;;8.18;6.30;;;;;;;;;;5068856;28;20028;-62
2023/07/09 10:12:32;;;;;;;11.32;5.93;;;;;;;;;;5068056;28;20082;-62
2023/07/09 10:15:16;;;;;;;17.05;8.43;;;;;;;;;;5070109;28;20025;-62
2023/07/09 10:17:54;;;;;;;14.90;6.43;;;;;;;;;;5068657;28;20124;-62
2023/07/09 10:20:19;;;;;;;19.70;7.22;;;;;;;;;;5057865;28;20025;-62
2023/07/09 10:23:03;;;;;;;10.30;6.00;;;;;;;;;;5049231;28;20518;-62
2023/07/09 10:25:34;;;;;;;8.43;6.03;;;;;;;;;;5050921;28;20094;-62
2023/07/09 10:28:10;;;;;;;9.40;6.15;;;;;;;;;;5048499;28;20041;-62
2023/07/09 10:30:47;;;;;;;11.23;6.07;;;;;;;;;;5050271;28;20106;-62
2023/07/09 10:33:16;;;;;;;12.55;6.20;;;;;;;;;;5048774;28;20660;-62
2023/07/09 10:35:51;;;;;;;10.70;5.85;;;;;;;;;;5049892;28;20048;-62
2023/07/09 10:38:21;;;;;;;10.45;6.47;;;;;;;;;;5048593;28;20393;-62
2023/07/09 10:40:49;;;;;;;7.32;6.20;;;;;;;;;;5050409;28;20013;-62
2023/07/09 10:43:16;;;;;;;7.22;5.47;;;;;;;;;;5048360;28;20071;-62
2023/07/09 10:45:44;;;;;;;8.77;5.75;;;;;;;;;;5056549;28;20135;-62
2023/07/09 10:48:09;;;;;;;;;;;;;;;;;;5069202;28;20095;-62
2023/07/09 10:50:40;;;;;;;10.95;5.38;;;;;;;;;;5069776;28;19978;-62
2023/07/09 10:53:12;;;;;;;16.35;5.50;;;;;;;;;;5068154;28;20056;-62
2023/07/09 10:55:50;;;;;;;10.35;5.97;;;;;;;;;;5070448;28;20389;-63
2023/07/09 10:58:30;;;;;;;10.35;6.55;;;;;;;;;;5068185;28;20044;-63
2023/07/09 11:00:57;;;;;;;11.68;6.30;;;;;;;;;;5069782;28;20016;-62
2023/07/09 11:03:28;;;;;;;10.95;4.93;;;;;;;;;;5068534;28;20029;-62
2023/07/09 11:05:53;;;;;;;12.18;7.13;;;;;;;;;;5069759;28;20072;-62
2023/07/09 11:08:21;;;;;;;26.27;7.03;;;;;;;;;;5068506;28;20036;-62
2023/07/09 11:10:53;;;;;;;8.00;5.28;;;;;;;;;;5069754;28;20469;-62
2023/07/09 11:13:37;;;;;;;8.43;6.03;;;;;;;;;;5070324;28;20048;-62
2023/07/09 11:16:02;;;;;;;7.45;5.00;;;;;;;;;;5073929;28;20104;-62
2023/07/09 11:18:31;;;;;;;10.52;5.00;;;;;;;;;;5071191;28;20124;-63
2023/07/09 11:21:01;;;;;;;6.07;4.30;;;;;;;;;;5073826;28;20013;-62
2023/07/09 11:23:26;;;;;;;6.28;5.05;;;;;;;;;;5072733;28;20119;-62
2023/07/09 11:26:09;;;;;;;10.55;5.72;;;;;;;;;;5074194;28;20143;-62
2023/07/09 11:28:35;;;;;;;8.18;4.65;;;;;;;;;;5072404;28;20075;-62
2023/07/09 11:31:19;;;;;;;7.57;5.03;;;;;;;;;;5073744;28;20060;-62
2023/07/09 11:33:49;;;;;;;5.13;4.60;;;;;;;;;;5072764;28;20440;-62
2023/07/09 11:36:23;;;;;;;7.47;5.63;;;;;;;;;;5073079;28;20040;-62
2023/07/09 11:38:48;;;;;;;11.82;5.45;;;;;;;;;;5072685;28;20033;-62
2023/07/09 11:41:28;;;;;;;7.93;4.65;;;;;;;;;;5073821;28;20135;-62
2023/07/09 11:44:02;;;;;;;8.43;5.95;;;;;;;;;;5071856;28;20044;-62
2023/07/09 11:46:27;;;;;;;10.98;5.35;;;;;;;;;;5061558;28;20025;-62
2023/07/09 11:48:53;;;;;;;6.72;4.57;;;;;;;;;;5051927;28;20048;-62
2023/07/09 11:51:24;;;;;;;14.30;5.90;;;;;;;;;;5053475;28;20039;-62
2023/07/09 11:53:51;;;;;;;7.60;5.07;;;;;;;;;;5052016;28;20041;-62
2023/07/09 11:56:20;;;;;;;11.68;5.00;;;;;;;;;;5053527;28;20617;-62
2023/07/09 11:58:52;;;;;;;8.27;4.80;;;;;;;;;;5051863;28;20433;-62
2023/07/09 12:01:36;;;;;;;13.82;5.65;;;;;;;;;;5053423;28;20094;-62
2023/07/09 12:04:02;;;;;;;8.38;5.53;;;;;;;;;;5050823;28;20175;-62
2023/07/09 12:06:28;;;;;;;10.97;5.50;;;;;;;;;;5061987;28;20035;-62
2023/07/09 12:08:54;;;;;;;10.88;6.28;;;;;;;;;;5071658;28;20059;-62
2023/07/09 12:11:25;;;;;;;12.63;4.47;;;;;;;;;;5072432;28;20483;-62
2023/07/09 12:13:51;;;;;;;8.30;4.32;;;;;;;;;;5070460;28;20036;-62
2023/07/09 12:16:27;;;;;;;10.40;5.75;;;;;;;;;;5073117;28;20388;-62
2023/07/09 12:18:52;;;;;;;11.05;4.95;;;;;;;;;;5066513;28;20179;-62
2023/07/09 12:21:18;;;;;;;12.00;4.85;;;;;;;;;;5064952;28;20535;-62
2023/07/09 12:23:44;;;;;;;13.20;3.97;;;;;;;;;;5066352;28;20040;-62
2023/07/09 12:26:13;;;;;;;7.60;4.97;;;;;;;;;;5052094;28;20019;-62
2023/07/09 12:28:38;;;;;;;7.05;3.97;;;;;;;;;;5054560;28;20049;-62
2023/07/09 12:31:03;;;;;;;6.23;4.77;;;;;;;;;;5053666;28;20376;-62
2023/07/09 12:33:29;;;;;;;8.88;4.75;;;;;;;;;;5053359;28;20061;-62
2023/07/09 12:35:58;;;;;;;10.80;3.83;;;;;;;;;;5055359;28;20037;-62
2023/07/09 12:38:24;;;;;;;13.20;5.00;;;;;;;;;;5053510;28;20455;-62
2023/07/09 12:40:50;;;;;;;13.98;5.55;;;;;;;;;;5054833;28;20024;-62
2023/07/09 12:43:19;;;;;;;16.92;5.18;;;;;;;;;;5053722;28;20416;-62
2023/07/09 12:45:44;;;;;;;13.02;4.63;;;;;;;;;;5056607;28;20577;-62
2023/07/09 12:48:11;;;;;;;7.20;4.83;;;;;;;;;;5062200;28;20072;-62
2023/07/09 12:50:36;;;;;;;;;;;;;;;;;;5068624;28;20381;-62
2023/07/09 12:53:02;;;;;;;7.15;4.20;;;;;;;;;;5062079;28;20302;-62
2023/07/09 12:55:31;;;;;;;7.45;5.10;;;;;;;;;;5061770;28;20040;-62
2023/07/09 12:57:57;;;;;;;5.18;3.95;;;;;;;;;;5050250;28;20471;-61
2023/07/09 13:00:22;;;;;;;9.32;5.15;;;;;;;;;;5052312;28;20051;-62
2023/07/09 13:02:53;;;;;;;8.20;4.07;;;;;;;;;;5051854;28;20069;-62
2023/07/09 13:05:19;;;;;;;9.15;6.00;;;;;;;;;;5064053;28;20363;-62
2023/07/09 13:07:50;;;;;;;8.82;3.95;;;;;;;;;;5064854;28;20036;-62
2023/07/09 13:10:17;;;;;;;12.13;4.53;;;;;;;;;;5059536;28;20518;-62
2023/07/09 13:12:45;;;;;;;11.73;4.60;;;;;;;;;;5056312;28;20518;-62
2023/07/09 13:15:26;;;;;;;9.35;4.45;;;;;;;;;;5063020;28;20357;-62
2023/07/09 13:17:56;;;;;;;7.03;5.15;;;;;;;;;;5050258;28;20036;-62
2023/07/09 13:20:21;;;;;;;8.20;4.68;;;;;;;;;;5064477;28;20067;-62
2023/07/09 13:22:46;;;;;;;8.97;4.13;;;;;;;;;;5056429;28;20400;-62
2023/07/09 13:25:11;;;;;;;11.13;4.23;;;;;;;;;;5064995;28;20021;-62
2023/07/09 13:27:37;;;;;;;8.93;4.60;;;;;;;;;;5067125;28;20064;-62
2023/07/09 13:30:02;;;;;;;6.82;4.88;;;;;;;;;;5071226;28;20017;-62
2023/07/09 13:32:28;;;;;;;8.70;4.03;;;;;;;;;;5056894;28;20622;-63
2023/07/09 13:34:53;;;;;;;8.45;3.92;;;;;;;;;;5066674;28;20039;-62
2023/07/09 13:37:18;;;;;;;9.20;4.55;;;;;;;;;;5063478;28;20093;-63
2023/07/09 13:39:45;;;;;;;11.03;5.33;;;;;;;;;;5051942;28;20032;-62
2023/07/09 13:42:11;;;;;;;8.98;5.10;;;;;;;;;;5068730;28;20105;-62
2023/07/09 13:44:36;;;;;;;20.85;5.43;;;;;;;;;;5065816;28;20052;-62
2023/07/09 13:47:02;;;;;;;10.60;5.35;;;;;;;;;;5051990;28;20127;-62
2023/07/09 13:49:27;;;;;;;7.50;4.27;;;;;;;;;;5053161;28;20033;-62
2023/07/09 13:51:54;;;;;;;4.63;3.97;;;;;;;;;;5050442;28;20033;-62
2023/07/09 13:54:19;;;;;;;12.00;4.07;;;;;;;;;;5051482;28;20472;-62
2023/07/09 13:56:44;;;;;;;10.32;5.10;;;;;;;;;;5049729;28;20040;-62
2023/07/09 13:59:14;;;;;;;5.82;4.10;;;;;;;;;;5050873;28;20504;-62
2023/07/09 14:01:40;;;;;;;9.55;4.70;;;;;;;;;;5049059;28;20403;-62
2023/07/09 14:04:05;;;;;;;6.50;4.28;;;;;;;;;;5050698;28;20104;-62
2023/07/09 14:06:30;;;;;;;6.75;4.93;;;;;;;;;;5050007;28;20037;-70
2023/07/09 14:08:55;;;;;;;11.70;4.22;;;;;;;;;;5054056;28;20020;-62
2023/07/09 14:11:21;;;;;;;11.17;7.07;;;;;;;;;;5052713;28;20017;-62
2023/07/09 14:13:46;;;;;;;7.05;5.93;;;;;;;;;;5070569;28;20059;-62
2023/07/09 14:16:12;;;;;;;22.23;4.93;;;;;;;;;;5053476;28;20537;-61
2023/07/09 14:18:37;;;;;;;7.75;4.97;;;;;;;;;;5050887;28;20408;-63
2023/07/09 14:21:16;;;;;;;9.15;5.18;;;;;;;;;;5050936;28;20044;-62
2023/07/09 14:23:42;;;;;;;7.72;4.95;;;;;;;;;;5049345;28;20051;-62
2023/07/09 14:26:08;;;;;;;9.80;4.43;;;;;;;;;;5049208;28;20029;-61
2023/07/09 14:28:34;;;;;;;13.98;4.50;;;;;;;;;;5070216;28;20013;-62
2023/07/09 14:30:59;;;;;;;7.28;5.18;;;;;;;;;;5070038;28;20020;-62
2023/07/09 14:33:24;;;;;;;7.85;4.70;;;;;;;;;;5034545;28;20040;-62
2023/07/09 14:35:50;;;;;;;7.03;5.93;;;;;;;;;;5049249;28;20094;-62